Time;durP1;ratioP1;P1;durP2;ratioP2;P2;SDS_P1;SDS_P2;PMS_P1;PMS_P2;Temp;Humidity;BMP_temperature;BMP_pressure;BME280_temperature;BME280_humidity;BME280_pressure;Samples;Min_cycle;Max_cycle;Signal;HPM_P1;HPM_P2
2022/02/04 00:24:43;;;;;;;35.58;16.55;;;5.50;99.90;;;;;;5059845;28;20071;-65
2022/02/04 00:27:17;;;;;;;35.13;17.20;;;5.50;99.90;;;;;;5042409;28;20043;-65
2022/02/04 00:29:58;;;;;;;40.58;17.05;;;5.50;99.90;;;;;;5060001;28;20021;-65
2022/02/04 00:32:29;;;;;;;35.60;17.80;;;5.50;99.90;;;;;;5059138;28;20349;-65
2022/02/04 00:36:07;;;;;;;31.27;17.80;;;5.50;99.90;;;;;;5060044;28;20364;-65
2022/02/04 00:37:59;;;;;;;35.60;17.73;;;5.50;99.90;;;;;;5046464;28;20091;-65
2022/02/04 00:40:32;;;;;;;38.10;18.38;;;5.50;99.90;;;;;;5042265;28;20025;-65
2022/02/04 00:43:03;;;;;;;39.08;18.38;;;5.60;99.90;;;;;;5060057;28;20025;-65
2022/02/04 00:50:56;;;;;;;37.58;17.38;;;5.50;99.90;;;;;;5059740;28;20029;-65
2022/02/04 00:53:34;;;;;;;40.17;18.90;;;5.60;99.90;;;;;;5059281;28;20116;-65
2022/02/04 00:56:19;;;;;;;41.03;19.00;;;5.60;99.90;;;;;;5058732;28;20311;-65
2022/02/04 01:26:22;;;;;;;35.53;17.40;;;5.60;99.90;;;;;;5059327;28;20036;-65
2022/02/04 01:28:52;;;;;;;35.40;16.70;;;5.60;99.90;;;;;;5059544;28;20021;-65
2022/02/04 01:31:21;;;;;;;35.30;17.23;;;5.70;99.90;;;;;;5058952;28;20025;-65
2022/02/04 01:33:51;;;;;;;37.63;17.00;;;5.60;99.90;;;;;;5059448;28;20040;-65
2022/02/04 01:36:19;;;;;;;32.63;17.00;;;5.60;99.90;;;;;;5058506;28;20021;-65
2022/02/04 01:38:47;;;;;;;39.35;19.00;;;5.70;99.90;;;;;;5058447;28;20013;-65
2022/02/04 01:41:15;;;;;;;34.03;17.08;;;5.70;99.90;;;;;;5057833;28;20021;-65
2022/02/04 01:43:43;;;;;;;38.00;19.08;;;5.70;99.90;;;;;;5057778;28;20031;-65
2022/02/04 01:46:12;;;;;;;31.17;16.50;;;5.70;99.90;;;;;;5040158;28;20025;-65
2022/02/04 01:48:40;;;;;;;38.50;17.40;;;5.70;99.90;;;;;;5058266;28;20033;-65
2022/02/04 01:51:10;;;;;;;36.22;18.95;;;5.70;99.90;;;;;;5057664;28;20032;-65
2022/02/04 01:53:38;;;;;;;42.20;18.52;;;5.70;99.90;;;;;;5057513;28;20078;-65
2022/02/04 01:56:08;;;;;;;36.83;18.38;;;5.70;99.90;;;;;;5057421;28;20123;-65
2022/02/04 01:58:37;;;;;;;32.83;17.20;;;5.70;99.90;;;;;;5040172;28;20017;-65
2022/02/04 02:01:05;;;;;;;35.40;16.90;;;5.70;99.90;;;;;;5058385;28;20413;-65
2022/02/04 02:03:33;;;;;;;33.60;18.20;;;5.70;99.90;;;;;;5058307;28;20338;-65
2022/02/04 02:06:06;;;;;;;37.53;16.75;;;5.70;99.90;;;;;;5058849;28;20025;-65
2022/02/04 02:08:35;;;;;;;35.88;18.02;;;5.70;99.90;;;;;;5058507;28;20028;-65
2022/02/04 02:11:02;;;;;;;39.63;17.80;;;5.70;99.90;;;;;;5058157;28;20476;-65
2022/02/04 02:13:48;;;;;;;41.83;19.73;;;5.70;99.90;;;;;;5070847;28;20105;-65
2022/02/04 02:49:46;;;;;;;29.97;15.23;;;5.90;99.90;;;;;;5077629;28;20108;-65
2022/02/04 02:55:05;;;;;;;42.08;16.55;;;5.90;99.90;;;;;;5077566;28;20051;-65
2022/02/04 03:00:46;;;;;;;34.90;17.77;;;5.90;99.90;;;;;;5077204;28;20064;-65
2022/02/04 03:03:17;;;;;;;35.03;17.83;;;5.90;99.90;;;;;;5076765;28;20049;-65
2022/02/04 03:05:44;;;;;;;38.58;16.27;;;5.90;99.90;;;;;;5076512;28;20336;-65
2022/02/04 03:08:12;;;;;;;35.58;15.90;;;5.90;99.90;;;;;;5076806;28;20031;-65
2022/02/04 03:10:39;;;;;;;33.13;16.13;;;5.90;99.90;;;;;;5077061;28;20021;-65
2022/02/04 03:13:07;;;;;;;34.45;14.02;;;5.90;99.90;;;;;;5062601;28;20045;-65
2022/02/04 03:15:36;;;;;;;31.95;16.85;;;5.90;99.90;;;;;;5056533;28;20029;-65
2022/02/04 03:18:08;;;;;;;29.63;14.75;;;5.90;99.90;;;;;;5056284;28;20028;-65
2022/02/04 03:20:48;;;;;;;30.08;15.50;;;5.90;99.90;;;;;;5056550;28;20025;-65
2022/02/04 03:23:16;;;;;;;31.60;15.07;;;5.90;99.90;;;;;;5040601;28;20421;-65
2022/02/04 03:25:50;;;;;;;31.10;15.25;;;5.90;99.90;;;;;;5057121;28;20107;-65
2022/02/04 03:28:24;;;;;;;34.50;16.33;;;5.90;99.90;;;;;;5057916;28;20027;-65
2022/02/04 03:30:55;;;;;;;29.77;14.70;;;5.90;99.90;;;;;;5057945;28;20016;-65
2022/02/04 03:33:26;;;;;;;29.08;14.07;;;6.00;99.90;;;;;;5056806;28;20051;-65
2022/02/04 03:35:54;;;;;;;28.67;14.32;;;6.00;99.90;;;;;;5057277;28;20092;-65
2022/02/04 03:38:22;;;;;;;29.55;14.55;;;6.00;99.90;;;;;;5057055;28;20028;-65
2022/02/04 03:40:49;;;;;;;28.00;14.60;;;6.00;99.90;;;;;;5057078;28;20021;-65
2022/02/04 03:43:18;;;;;;;24.75;13.13;;;6.00;99.90;;;;;;5056998;28;20317;-65
2022/02/04 03:45:45;;;;;;;27.52;13.55;;;6.00;99.90;;;;;;5039207;28;20330;-65
2022/02/04 03:48:13;;;;;;;30.00;14.35;;;6.00;99.90;;;;;;5021822;28;20433;-65
2022/02/04 03:50:41;;;;;;;28.25;15.00;;;6.00;99.90;;;;;;5056544;28;20086;-65
2022/02/04 03:53:15;;;;;;;28.05;14.85;;;6.00;99.90;;;;;;5056448;28;20029;-65
2022/02/04 03:55:44;;;;;;;27.67;13.98;;;6.00;99.90;;;;;;5038468;28;20025;-65
2022/02/04 03:58:12;;;;;;;26.05;14.45;;;6.00;99.90;;;;;;5055915;28;20017;-65
2022/02/04 04:00:40;;;;;;;26.40;13.82;;;6.00;99.90;;;;;;5038286;28;20025;-65
2022/02/04 04:03:08;;;;;;;25.95;14.43;;;6.00;99.90;;;;;;5056155;28;20025;-65
2022/02/04 04:05:44;;;;;;;26.15;13.40;;;6.00;99.90;;;;;;5056781;28;20025;-65
2022/02/04 04:08:15;;;;;;;25.90;12.35;;;6.00;99.90;;;;;;5056549;28;20031;-65
2022/02/04 04:10:43;;;;;;;21.20;12.45;;;6.00;99.90;;;;;;5056729;28;20071;-65
2022/02/04 04:13:12;;;;;;;23.30;12.60;;;5.90;99.90;;;;;;5056753;28;20052;-65
2022/02/04 04:15:40;;;;;;;26.20;12.65;;;6.00;99.90;;;;;;5056882;28;20027;-65
2022/02/04 04:18:12;;;;;;;22.67;12.32;;;5.90;99.90;;;;;;5057181;28;20031;-65
2022/02/04 04:20:41;;;;;;;21.30;10.40;;;5.90;99.90;;;;;;5060062;28;20021;-65
2022/02/04 04:23:10;;;;;;;20.67;10.98;;;5.90;99.90;;;;;;5060264;28;20021;-65
2022/02/04 04:25:37;;;;;;;25.75;12.80;;;5.90;99.90;;;;;;5060268;28;20017;-65
2022/02/04 04:28:04;;;;;;;22.52;11.13;;;6.00;99.90;;;;;;5041689;28;20025;-65
2022/02/04 04:30:32;;;;;;;21.70;11.10;;;6.00;99.90;;;;;;5041554;28;20325;-65
2022/02/04 04:33:00;;;;;;;19.83;10.90;;;5.90;99.90;;;;;;5059632;28;20017;-65
2022/02/04 04:35:28;;;;;;;20.80;11.35;;;6.00;99.90;;;;;;5059667;28;20021;-65
2022/02/04 04:41:13;;;;;;;19.83;11.25;;;6.00;99.90;;;;;;5042034;28;20343;-65
2022/02/04 04:44:18;;;;;;;21.30;10.65;;;6.00;99.90;;;;;;5059482;28;20032;-65
2022/02/04 05:31:02;;;;;;;17.13;8.27;;;6.10;99.90;;;;;;5045404;28;20033;-65
2022/02/04 05:33:29;;;;;;;15.52;8.85;;;6.10;99.90;;;;;;5059146;28;20056;-65
2022/02/04 05:35:57;;;;;;;14.60;8.40;;;6.10;99.90;;;;;;5059628;28;20024;-65
2022/02/04 05:38:26;;;;;;;16.80;9.75;;;6.10;99.90;;;;;;5041138;28;20029;-65
2022/02/04 05:40:54;;;;;;;18.65;10.50;;;6.10;99.90;;;;;;5059271;28;20108;-65
2022/02/04 05:43:26;;;;;;;16.40;9.23;;;6.10;99.90;;;;;;5059260;28;20040;-65
2022/02/04 05:46:00;;;;;;;18.15;9.48;;;6.10;99.90;;;;;;5059628;28;20021;-65
2022/02/04 05:48:31;;;;;;;20.20;9.75;;;6.10;99.90;;;;;;5058943;28;20052;-65
2022/02/04 05:51:24;;;;;;;16.98;9.35;;;6.10;99.90;;;;;;5057746;28;20029;-65
2022/02/04 05:54:01;;;;;;;16.85;9.32;;;6.00;99.90;;;;;;5057546;28;20036;-65
2022/02/04 06:01:40;;;;;;;17.42;9.52;;;6.10;99.90;;;;;;5057461;28;20025;-65
2022/02/04 06:07:09;;;;;;;18.63;9.63;;;6.00;99.90;;;;;;5057432;28;20143;-65
2022/02/04 06:10:07;;;;;;;16.58;8.88;;;6.00;99.90;;;;;;5057241;28;20443;-65
2022/02/04 06:23:30;;;;;;;15.77;7.90;;;6.10;99.90;;;;;;5058335;28;20032;-65
2022/02/04 06:26:00;;;;;;;13.18;8.32;;;6.10;99.90;;;;;;5058054;28;20016;-65
2022/02/04 06:28:28;;;;;;;16.02;9.18;;;6.10;99.90;;;;;;5040271;28;20033;-65
2022/02/04 06:30:55;;;;;;;16.27;8.23;;;6.00;99.90;;;;;;5058405;28;20021;-65
2022/02/04 06:33:22;;;;;;;13.45;7.85;;;6.00;99.90;;;;;;5039742;28;20021;-65
2022/02/04 06:35:50;;;;;;;14.05;8.10;;;6.00;99.90;;;;;;5057484;28;20044;-65
2022/02/04 06:38:17;;;;;;;13.88;8.57;;;6.00;99.90;;;;;;5057314;28;20025;-65
2022/02/04 06:40:45;;;;;;;15.85;7.85;;;6.00;99.90;;;;;;5056960;28;20021;-65
2022/02/04 06:43:12;;;;;;;12.50;7.38;;;5.90;99.90;;;;;;5056302;28;20352;-65
2022/02/04 06:45:40;;;;;;;13.65;8.23;;;5.90;99.90;;;;;;5056668;28;20421;-65
2022/02/04 06:48:08;;;;;;;13.63;7.65;;;5.90;99.90;;;;;;5056563;28;20325;-65
2022/02/04 06:50:35;;;;;;;16.23;8.13;;;5.90;99.90;;;;;;5039182;28;20056;-65
2022/02/04 06:53:04;;;;;;;11.15;6.75;;;5.80;99.90;;;;;;5057036;28;20028;-65
2022/02/04 06:55:32;;;;;;;15.43;7.53;;;5.80;99.90;;;;;;5039846;28;20029;-65
2022/02/04 06:58:02;;;;;;;11.75;6.95;;;5.80;99.90;;;;;;5058560;28;20282;-65
2022/02/04 07:00:29;;;;;;;13.63;6.28;;;5.80;99.90;;;;;;5058149;28;20024;-66
2022/02/04 07:02:57;;;;;;;10.38;6.32;;;5.80;99.90;;;;;;5057448;28;20032;-64
2022/02/04 07:05:25;;;;;;;14.15;6.10;;;5.80;99.90;;;;;;5057615;28;20028;-65
2022/02/04 07:08:03;;;;;;;10.63;5.82;;;5.90;99.90;;;;;;5057376;28;20032;-68
2022/02/04 07:10:42;;;;;;;8.85;5.25;;;5.90;99.90;;;;;;5057592;28;20060;-67
2022/02/04 07:13:23;;;;;;;10.43;6.10;;;5.90;99.90;;;;;;5056952;28;20053;-67
2022/02/04 07:16:20;;;;;;;10.00;6.18;;;5.90;99.90;;;;;;5056319;28;20017;-68
2022/02/04 07:21:30;;;;;;;13.02;5.85;;;5.80;99.90;;;;;;5056410;28;20107;-68
2022/02/04 07:23:57;;;;;;;11.05;6.55;;;5.90;99.90;;;;;;5038611;28;20036;-71
2022/02/04 07:26:25;;;;;;;12.35;6.45;;;5.80;99.90;;;;;;5056978;28;20025;-72
2022/02/04 07:28:54;;;;;;;9.07;5.70;;;5.80;99.90;;;;;;5056289;28;20029;-73
2022/02/04 07:31:21;;;;;;;8.73;5.68;;;5.80;99.90;;;;;;5056260;28;20049;-72
2022/02/04 07:33:54;;;;;;;10.60;6.22;;;5.90;99.90;;;;;;5056160;28;20017;-73
2022/02/04 07:41:55;;;;;;;10.65;6.93;;;5.80;99.90;;;;;;5057137;28;20017;-73
2022/02/04 07:44:22;;;;;;;13.07;5.95;;;5.90;99.90;;;;;;5056997;28;20025;-73
2022/02/04 07:46:50;;;;;;;8.88;5.47;;;5.90;99.90;;;;;;5057140;28;20017;-74
2022/02/04 07:49:18;;;;;;;11.32;6.25;;;5.90;99.90;;;;;;5056970;28;20021;-73
2022/02/04 07:51:46;;;;;;;11.13;6.22;;;5.90;99.90;;;;;;5057465;28;20022;-71
2022/02/04 07:54:14;;;;;;;10.32;5.75;;;5.90;99.90;;;;;;5039654;28;20022;-72
2022/02/04 07:56:41;;;;;;;16.33;6.70;;;5.90;99.90;;;;;;5060964;28;20028;-68
2022/02/04 07:59:10;;;;;;;8.70;4.93;;;5.90;99.90;;;;;;5060283;28;20017;-68
2022/02/04 08:01:37;;;;;;;10.70;5.70;;;5.90;99.90;;;;;;5059718;28;20484;-69
2022/02/04 08:04:13;;;;;;;11.27;7.35;;;5.90;99.90;;;;;;5059610;28;20114;-69
2022/02/04 08:06:47;;;;;;;9.00;5.25;;;5.90;99.90;;;;;;5059856;28;20356;-69
2022/02/04 08:09:31;;;;;;;10.50;5.40;;;6.00;99.90;;;;;;5059377;28;20159;-69
2022/02/04 08:15:00;;;;;;;10.13;5.13;;;6.00;99.90;;;;;;5059944;28;20074;-68
2022/02/04 08:20:36;;;;;;;12.45;5.90;;;6.10;99.90;;;;;;5060227;28;20056;-65
2022/02/04 08:31:21;;;;;;;9.63;5.95;;;6.20;99.90;;;;;;5060179;28;20022;-66
2022/02/04 08:48:06;;;;;;;7.53;4.45;;;6.30;99.90;;;;;;5058949;28;20047;-68
2022/02/04 08:53:19;;;;;;;9.48;5.53;;;6.40;99.90;;;;;;5058765;28;20325;-67
2022/02/04 08:55:52;;;;;;;8.10;3.78;;;6.40;99.90;;;;;;5045244;28;20033;-66
2022/02/04 09:01:02;;;;;;;8.90;4.63;;;6.50;99.90;;;;;;5058918;28;20017;-65
2022/02/04 09:03:41;;;;;;;6.38;3.60;;;6.60;99.90;;;;;;5060083;28;20108;-64
2022/02/04 09:06:13;;;;;;;6.57;4.07;;;6.70;99.90;;;;;;5059997;28;20027;-64
2022/02/04 09:08:51;;;;;;;6.90;3.60;;;6.70;99.90;;;;;;5059485;28;20033;-64
2022/02/04 09:19:22;;;;;;;6.68;3.80;;;7.10;99.90;;;;;;5059212;28;20018;-65
2022/02/04 09:24:24;;;;;;;7.18;3.42;;;7.20;99.90;;;;;;5058531;28;20029;-65
2022/02/04 09:26:52;;;;;;;4.43;3.15;;;7.20;99.90;;;;;;5058517;28;20021;-64
2022/02/04 09:29:20;;;;;;;6.43;4.25;;;7.30;99.90;;;;;;5040554;28;20021;-66
2022/02/04 09:31:47;;;;;;;5.05;2.83;;;7.40;99.90;;;;;;5040494;28;20055;-66
2022/02/04 09:34:14;;;;;;;5.88;2.92;;;7.50;99.90;;;;;;5058021;28;20105;-67
2022/02/04 09:36:42;;;;;;;5.93;3.47;;;7.50;99.90;;;;;;5058618;28;20032;-68
2022/02/04 09:39:10;;;;;;;5.10;2.97;;;7.60;99.90;;;;;;5057910;28;20041;-67
2022/02/04 09:41:37;;;;;;;6.63;3.25;;;7.60;99.90;;;;;;5058081;28;20017;-67
2022/02/04 09:44:04;;;;;;;7.20;3.70;;;7.70;99.90;;;;;;5058931;28;20108;-67
2022/02/04 09:46:35;;;;;;;7.80;3.50;;;7.70;99.90;;;;;;5041066;28;20421;-67
2022/02/04 09:49:12;;;;;;;6.47;3.25;;;7.80;99.90;;;;;;5058474;28;20047;-67
2022/02/04 10:08:59;;;;;;;5.05;2.80;;;8.10;99.90;;;;;;5057669;28;20155;-66
2022/02/04 10:17:24;;;;;;;8.50;2.55;;;8.30;99.90;;;;;;5056673;28;20075;-69
2022/02/04 10:20:00;;;;;;;4.40;2.58;;;8.40;99.90;;;;;;5057726;28;20031;-67
2022/02/04 10:22:30;;;;;;;5.90;2.28;;;8.40;99.90;;;;;;5057257;28;20035;-69
2022/02/04 10:25:00;;;;;;;6.15;2.78;;;8.40;99.90;;;;;;5039326;28;20372;-65
2022/02/04 10:27:33;;;;;;;5.15;2.50;;;8.40;99.90;;;;;;5040465;28;20397;-65
2022/02/04 10:30:10;;;;;;;4.88;3.25;;;8.40;99.90;;;;;;5057882;28;20029;-66
2022/02/04 10:32:38;;;;;;;;;;;8.40;99.90;;;;;;5040711;28;20425;-65
2022/02/04 10:35:25;;;;;;;3.50;2.38;;;8.40;99.90;;;;;;5057974;28;19911;-66
2022/02/04 10:38:23;;;;;;;4.40;2.22;;;8.50;99.90;;;;;;5057706;28;20108;-67
2022/02/04 10:43:45;;;;;;;4.05;2.50;;;8.50;99.90;;;;;;5057670;28;20377;-68
2022/02/04 10:52:18;;;;;;;2.28;1.50;;;8.50;99.90;;;;;;5056805;28;20368;-66
2022/02/04 10:55:09;;;;;;;4.25;2.60;;;8.50;99.90;;;;;;5056216;28;20025;-67
2022/02/04 11:00:27;;;;;;;3.33;2.10;;;8.40;99.90;;;;;;5056504;28;20108;-67
2022/02/04 11:02:59;;;;;;;3.15;1.60;;;8.40;99.90;;;;;;5056425;28;20290;-67
2022/02/04 11:11:42;;;;;;;3.28;1.50;;;8.10;99.90;;;;;;5057929;28;20321;-67
2022/02/04 11:30:56;;;;;;;2.22;1.23;;;8.10;99.90;;;;;;5057775;28;20498;-67
2022/02/04 11:31:29;;;;;;;2.03;1.03;;;8.00;99.90;;;;;;5060790;28;20028;-67
2022/02/04 11:34:18;;;;;;;1.35;0.90;;;7.90;99.90;;;;;;5056914;28;20276;-67
2022/02/04 11:43:31;;;;;;;1.75;0.70;;;7.80;99.90;;;;;;5060666;28;20025;-66
2022/02/04 11:49:28;;;;;;;2.83;1.13;;;8.00;99.90;;;;;;5060134;28;20023;-66
2022/02/04 11:57:05;;;;;;;0.95;0.60;;;8.40;99.90;;;;;;5060962;28;20330;-66
2022/02/04 11:59:39;;;;;;;1.13;0.60;;;8.60;99.90;;;;;;5061215;28;20313;-66
2022/02/04 12:02:29;;;;;;;2.10;0.90;;;8.70;99.90;;;;;;5043293;28;20321;-66
2022/02/04 12:08:12;;;;;;;3.60;1.10;;;8.80;99.90;;;;;;5060642;28;20037;-66
2022/02/04 12:10:44;;;;;;;6.13;1.40;;;8.90;99.90;;;;;;5060159;28;20052;-66
2022/02/04 12:13:12;;;;;;;1.25;0.63;;;9.00;99.90;;;;;;5059425;28;20125;-65
2022/02/04 12:15:49;;;;;;;1.88;0.90;;;9.10;99.90;;;;;;5060272;28;20052;-66
2022/02/04 12:18:44;;;;;;;5.18;0.90;;;9.10;99.90;;;;;;5059440;28;20167;-66
2022/02/04 12:21:17;;;;;;;2.33;0.77;;;9.20;99.90;;;;;;5059838;28;20095;-66
2022/02/04 12:23:50;;;;;;;2.95;0.95;;;9.30;99.90;;;;;;5059897;28;20410;-66
2022/02/04 12:26:43;;;;;;;0.50;0.30;;;9.30;99.90;;;;;;5058218;28;20037;-65
2022/02/04 12:29:28;;;;;;;0.55;0.30;;;9.30;99.90;;;;;;5057397;28;20041;-66
2022/02/04 12:31:55;;;;;;;0.73;0.30;;;9.20;99.90;;;;;;5060077;28;20139;-65
2022/02/04 12:34:24;;;;;;;0.60;0.30;;;9.20;99.90;;;;;;5058970;28;20040;-65
2022/02/04 12:36:54;;;;;;;1.08;0.50;;;9.20;99.90;;;;;;5060352;28;20021;-65
2022/02/04 12:39:24;;;;;;;1.45;0.60;;;9.20;99.90;;;;;;5042305;28;20044;-65
2022/02/04 12:41:57;;;;;;;2.05;1.00;;;9.20;99.90;;;;;;5041759;28;20325;-65
2022/02/04 12:44:27;;;;;;;3.95;1.17;;;9.10;99.90;;;;;;5059930;28;20013;-65
2022/02/04 12:46:59;;;;;;;1.98;0.68;;;9.10;99.90;;;;;;5042205;28;20325;-65
2022/02/04 12:49:33;;;;;;;1.10;0.50;;;9.20;99.90;;;;;;5059277;28;20021;-65
2022/02/04 12:52:25;;;;;;;1.23;0.52;;;9.20;99.90;;;;;;5041529;28;20075;-67
2022/02/04 12:57:37;;;;;;;0.82;0.45;;;9.30;99.90;;;;;;5058765;28;20032;-66
2022/02/04 13:08:19;;;;;;;0.90;0.20;;;9.30;99.90;;;;;;5058795;28;20474;-65
2022/02/04 13:11:07;;;;;;;1.00;0.52;;;9.30;99.90;;;;;;5059010;28;20364;-66
2022/02/04 13:13:46;;;;;;;0.63;0.32;;;9.20;99.90;;;;;;5064275;28;20072;-67
2022/02/04 13:16:24;;;;;;;1.13;0.60;;;9.10;99.90;;;;;;5059513;28;20028;-67
2022/02/04 13:18:52;;;;;;;0.25;0.20;;;9.10;99.90;;;;;;5059304;28;20025;-67
2022/02/04 13:21:21;;;;;;;0.82;0.40;;;9.00;99.90;;;;;;5059927;28;20017;-66
2022/02/04 13:23:52;;;;;;;0.88;0.30;;;9.00;99.90;;;;;;5059250;28;20444;-67
2022/02/04 13:26:29;;;;;;;0.70;0.40;;;9.00;99.90;;;;;;5059949;28;20039;-66
2022/02/04 13:28:59;;;;;;;0.50;0.30;;;8.90;99.90;;;;;;5059303;28;20028;-65
2022/02/04 13:31:27;;;;;;;0.45;0.30;;;8.90;99.90;;;;;;5059421;28;20504;-65
2022/02/04 13:33:57;;;;;;;0.65;0.40;;;8.90;99.90;;;;;;5058023;28;20100;-67
2022/02/04 13:36:38;;;;;;;0.40;0.20;;;8.80;99.90;;;;;;5058631;28;20082;-65
2022/02/04 13:39:25;;;;;;;0.75;0.30;;;8.80;99.90;;;;;;5058160;28;20021;-65
2022/02/04 13:42:07;;;;;;;;;;;8.60;99.90;;;;;;5058231;28;20029;-65
2022/02/04 13:47:27;;;;;;;0.55;0.32;;;8.60;99.90;;;;;;5057948;28;20017;-65
2022/02/04 13:58:19;;;;;;;1.48;0.73;;;8.10;99.90;;;;;;5058917;28;20032;-65
2022/02/04 14:03:35;;;;;;;1.00;0.60;;;7.90;99.90;;;;;;5058491;28;20025;-65
2022/02/04 14:06:13;;;;;;;1.42;0.70;;;7.80;99.90;;;;;;5058503;28;20021;-65
2022/02/04 14:11:44;;;;;;;4.72;1.38;;;7.70;99.90;;;;;;5055205;28;20108;-65
2022/02/04 14:14:12;;;;;;;1.17;0.60;;;7.70;99.90;;;;;;5057166;28;20049;-65
2022/02/04 14:16:41;;;;;;;3.53;1.20;;;7.80;99.90;;;;;;5057393;28;20044;-65
2022/02/04 14:19:09;;;;;;;1.95;0.68;;;7.80;99.90;;;;;;5057296;28;20024;-65
2022/02/04 14:21:37;;;;;;;3.38;1.15;;;7.90;99.90;;;;;;5057439;28;20021;-65
2022/02/04 14:24:11;;;;;;;4.32;1.58;;;7.80;99.90;;;;;;5057233;28;20352;-65
2022/02/04 14:26:48;;;;;;;1.80;0.95;;;7.80;99.90;;;;;;5057149;28;20155;-65
2022/02/04 14:29:25;;;;;;;1.52;0.90;;;7.90;99.90;;;;;;5057703;28;20309;-65
2022/02/04 14:32:08;;;;;;;1.92;1.17;;;7.80;99.90;;;;;;5041612;28;20461;-65
2022/02/04 14:35:05;;;;;;;3.67;1.20;;;7.90;99.90;;;;;;5056880;28;20032;-65
2022/02/04 14:49:22;;;;;;;2.63;1.20;;;7.90;99.90;;;;;;5058132;28;20341;-64
2022/02/04 14:54:12;;;;;;;4.27;1.20;;;7.80;99.90;;;;;;5057881;28;20412;-65
2022/02/04 15:02:46;;;;;;;0.90;0.60;;;7.90;99.90;;;;;;5056539;28;20104;-64
2022/02/04 15:05:19;;;;;;;2.03;0.77;;;7.80;99.90;;;;;;5056436;28;20421;-65
2022/02/04 15:07:49;;;;;;;0.90;0.55;;;7.80;99.90;;;;;;5056571;28;20021;-65
2022/02/04 15:10:28;;;;;;;1.00;0.68;;;7.70;99.90;;;;;;5056437;28;20028;-65
2022/02/04 15:12:56;;;;;;;0.80;0.50;;;7.70;99.90;;;;;;5056183;28;20045;-65
2022/02/04 15:15:27;;;;;;;0.88;0.32;;;7.70;99.90;;;;;;5056168;28;20045;-65
2022/02/04 15:17:56;;;;;;;1.00;0.63;;;7.70;99.90;;;;;;5039103;28;20021;-65
2022/02/04 15:20:23;;;;;;;1.77;0.40;;;7.70;99.90;;;;;;5057629;28;20052;-65
2022/02/04 15:22:51;;;;;;;1.05;0.50;;;7.70;99.90;;;;;;5039469;28;20029;-65
2022/02/04 15:25:22;;;;;;;0.95;0.52;;;7.50;99.90;;;;;;5039595;28;20057;-65
2022/02/04 15:28:21;;;;;;;1.13;0.60;;;7.50;99.90;;;;;;5057286;28;20025;-65
2022/02/04 15:30:53;;;;;;;2.28;0.80;;;7.40;99.90;;;;;;5057772;28;20444;-65
2022/02/04 15:33:22;;;;;;;2.10;0.75;;;7.50;99.90;;;;;;5057879;28;20033;-65
2022/02/04 15:35:50;;;;;;;13.73;1.48;;;7.40;99.90;;;;;;5057061;28;20036;-65
2022/02/04 15:38:18;;;;;;;2.78;0.70;;;7.50;99.90;;;;;;5038542;28;20051;-65
2022/02/04 15:40:46;;;;;;;1.55;0.70;;;7.40;99.90;;;;;;5056400;28;20017;-65
2022/02/04 15:43:15;;;;;;;1.45;0.80;;;7.40;99.90;;;;;;5056082;28;20040;-65
2022/02/04 15:48:25;;;;;;;1.02;0.57;;;7.30;99.90;;;;;;5056287;28;20033;-64
2022/02/04 15:51:06;;;;;;;1.83;0.90;;;7.30;99.90;;;;;;5055943;28;20033;-65
2022/02/04 15:53:53;;;;;;;2.08;0.80;;;7.20;99.90;;;;;;5056311;28;20112;-67
2022/02/04 15:59:24;;;;;;;1.02;0.50;;;7.30;99.90;;;;;;5056215;28;19955;-67
2022/02/04 16:02:14;;;;;;;3.75;1.58;;;7.30;99.90;;;;;;5056738;28;20053;-67
2022/02/04 16:04:45;;;;;;;2.55;0.77;;;7.30;99.90;;;;;;5056660;28;20029;-68
2022/02/04 16:07:16;;;;;;;3.40;1.30;;;7.30;99.90;;;;;;5057050;28;20025;-68
2022/02/04 16:09:48;;;;;;;1.42;0.70;;;7.30;99.90;;;;;;5056750;28;20070;-68
2022/02/04 16:12:23;;;;;;;2.50;0.65;;;7.30;99.90;;;;;;5056507;28;20074;-67
2022/02/04 16:15:00;;;;;;;1.80;0.70;;;7.30;99.90;;;;;;5056721;28;20124;-67
2022/02/04 16:17:36;;;;;;;1.73;0.80;;;7.20;99.90;;;;;;5060530;28;20025;-72
2022/02/04 16:20:13;;;;;;;2.30;0.80;;;7.20;99.90;;;;;;5060483;28;20028;-70
2022/02/04 16:22:59;;;;;;;2.38;0.70;;;7.20;99.90;;;;;;5059901;28;20448;-68
2022/02/04 16:25:58;;;;;;;4.07;0.90;;;7.20;99.90;;;;;;5042023;28;20409;-69
2022/02/04 16:28:38;;;;;;;2.45;0.82;;;7.20;99.90;;;;;;5041545;28;20032;-69
2022/02/04 16:31:07;;;;;;;9.75;1.15;;;7.20;99.90;;;;;;5059601;28;20025;-69
2022/02/04 16:33:36;;;;;;;1.00;0.50;;;7.20;99.90;;;;;;5041433;28;20025;-71
2022/02/04 16:36:12;;;;;;;2.63;1.02;;;7.20;99.90;;;;;;5059586;28;20299;-71
2022/02/04 16:38:42;;;;;;;4.43;1.60;;;7.20;99.90;;;;;;5059412;28;20071;-65
2022/02/04 16:41:11;;;;;;;2.40;0.70;;;7.20;99.90;;;;;;5059172;28;20025;-65
2022/02/04 16:43:39;;;;;;;4.65;1.05;;;7.10;99.90;;;;;;5059884;28;20428;-71
2022/02/04 16:46:08;;;;;;;4.07;1.30;;;7.10;99.90;;;;;;5060619;28;20025;-65
2022/02/04 16:48:36;;;;;;;5.05;2.25;;;7.00;99.90;;;;;;5059885;28;20429;-65
2022/02/04 16:51:06;;;;;;;3.53;1.00;;;6.90;99.90;;;;;;5059774;28;20083;-64
2022/02/04 16:53:37;;;;;;;2.88;0.80;;;6.90;99.90;;;;;;5060221;28;20340;-64
2022/02/04 16:56:05;;;;;;;4.82;1.48;;;6.70;99.90;;;;;;5060113;28;20021;-64
2022/02/04 16:58:33;;;;;;;3.28;1.33;;;6.60;99.90;;;;;;5060211;28;20082;-64
2022/02/04 17:01:04;;;;;;;4.35;0.60;;;6.60;99.90;;;;;;5059430;28;20396;-64
2022/02/04 17:03:32;;;;;;;3.88;1.15;;;6.40;99.90;;;;;;5058632;28;20497;-64
2022/02/04 17:06:03;;;;;;;3.30;0.68;;;6.40;99.90;;;;;;5059467;28;20029;-64
2022/02/04 17:08:58;;;;;;;2.20;1.08;;;6.30;99.90;;;;;;5058876;28;20317;-64
2022/02/04 17:11:25;;;;;;;1.23;0.70;;;6.20;99.90;;;;;;5057695;28;20091;-64
2022/02/04 17:13:54;;;;;;;3.30;1.08;;;6.10;99.90;;;;;;5058633;28;20416;-64
2022/02/04 17:16:21;;;;;;;5.00;1.20;;;6.10;99.90;;;;;;5059109;28;20056;-64
2022/02/04 17:18:50;;;;;;;1.90;0.98;;;6.00;99.90;;;;;;5058916;28;20287;-64
2022/02/04 17:21:23;;;;;;;2.70;0.80;;;6.00;99.90;;;;;;5058337;28;20046;-64
2022/02/04 17:23:54;;;;;;;2.42;1.05;;;6.00;99.90;;;;;;5059400;28;20030;-64
2022/02/04 17:26:23;;;;;;;5.03;0.93;;;5.90;99.90;;;;;;5059196;28;20036;-64
2022/02/04 17:28:51;;;;;;;3.95;0.90;;;5.90;99.90;;;;;;5058967;28;20421;-64
2022/02/04 17:31:20;;;;;;;4.32;1.15;;;5.90;99.90;;;;;;5059742;28;20058;-64
2022/02/04 17:33:47;;;;;;;5.20;1.48;;;5.90;99.90;;;;;;5058942;28;20058;-64
2022/02/04 17:36:15;;;;;;;5.05;1.38;;;5.90;99.90;;;;;;5059495;28;20424;-64
2022/02/04 17:38:43;;;;;;;2.75;0.70;;;5.90;99.90;;;;;;5058962;28;20049;-64
2022/02/04 17:41:12;;;;;;;4.70;1.58;;;5.90;99.90;;;;;;5059283;28;20600;-64
2022/02/04 17:43:42;;;;;;;3.92;1.40;;;5.90;99.90;;;;;;5058365;28;20056;-64
2022/02/04 17:46:10;;;;;;;2.65;0.80;;;5.90;99.90;;;;;;5057543;28;20039;-64
2022/02/04 17:48:51;;;;;;;3.10;0.88;;;5.90;99.90;;;;;;5057730;28;20032;-64
2022/02/04 17:51:40;;;;;;;2.65;1.08;;;5.90;99.90;;;;;;5057937;28;20027;-64
2022/02/04 17:54:10;;;;;;;3.78;0.75;;;6.00;99.90;;;;;;5039840;28;20075;-64
2022/02/04 18:02:33;;;;;;;2.65;1.00;;;6.00;99.90;;;;;;5053266;28;20052;-64
2022/02/04 18:08:06;;;;;;;3.10;1.48;;;6.00;99.90;;;;;;4997421;28;20427;-64
2022/02/04 18:10:33;;;;;;;4.18;1.05;;;6.00;99.90;;;;;;5046249;28;20131;-64
2022/02/04 18:13:02;;;;;;;3.47;0.90;;;6.00;99.90;;;;;;5058373;28;20056;-64
2022/02/04 18:15:29;;;;;;;4.07;0.70;;;6.00;99.90;;;;;;5058329;28;20021;-64
2022/02/04 18:17:57;;;;;;;5.03;0.73;;;6.00;99.90;;;;;;5040563;28;20375;-64
2022/02/04 18:20:25;;;;;;;1.48;0.80;;;6.00;99.90;;;;;;5058152;28;20299;-64
2022/02/04 18:22:53;;;;;;;2.95;1.25;;;5.90;99.90;;;;;;5058038;28;20021;-63
2022/02/04 18:25:20;;;;;;;2.47;0.40;;;5.90;99.90;;;;;;5040149;28;20024;-64
2022/02/04 18:27:49;;;;;;;2.20;0.47;;;5.70;99.90;;;;;;5039349;28;20035;-64
2022/02/04 18:30:17;;;;;;;0.57;0.30;;;5.40;99.90;;;;;;5057039;28;20025;-64
2022/02/04 18:32:47;;;;;;;0.22;0.20;;;5.10;99.90;;;;;;5057499;28;20100;-64
2022/02/04 18:35:19;;;;;;;2.63;0.10;;;4.70;99.90;;;;;;5056931;28;20044;-64
2022/02/04 18:38:09;;;;;;;0.13;0.10;;;4.30;99.90;;;;;;5038779;28;20112;-64
2022/02/04 18:41:11;;;;;;;0.10;0.10;;;4.10;99.90;;;;;;5056731;28;20100;-64
2022/02/04 18:46:29;;;;;;;1.17;0.47;;;3.70;99.90;;;;;;5057231;28;20082;-64
2022/02/04 18:49:01;;;;;;;2.92;1.25;;;3.50;99.90;;;;;;5057346;28;20056;-64
2022/02/04 18:54:16;;;;;;;0.35;0.20;;;3.30;99.90;;;;;;5057519;28;20025;-64
2022/02/04 18:59:29;;;;;;;0.10;0.10;;;3.20;99.90;;;;;;5057453;28;20017;-63
2022/02/04 19:01:57;;;;;;;;;;;3.20;99.90;;;;;;5058122;28;20107;-64
2022/02/04 19:04:32;;;;;;;;;;;3.10;99.90;;;;;;5040025;28;19904;-64
2022/02/04 19:07:06;;;;;;;1.30;0.50;;;3.10;99.90;;;;;;5057343;28;19905;-64
2022/02/04 19:09:36;;;;;;;1.10;0.38;;;3.10;99.90;;;;;;5057268;28;20074;-64
2022/02/04 19:12:11;;;;;;;0.57;0.30;;;3.00;99.90;;;;;;5056250;28;20032;-64
2022/02/04 19:17:17;;;;;;;0.30;0.20;;;2.90;99.90;;;;;;5056414;28;20051;-68
2022/02/04 19:19:59;;;;;;;0.63;0.25;;;2.90;99.90;;;;;;5056282;28;20017;-64